sensor_id;sensor_type;location;lat;lon;timestamp;P1;durP1;ratioP1;P2;durP2;ratioP2
57573;SDS011;68988;49.000;21.242;2023-10-13T00:01:19;1.55;;;1.45;;
57573;SDS011;68988;49.000;21.242;2023-10-13T00:03:45;1.45;;;1.40;;
57573;SDS011;68988;49.000;21.242;2023-10-13T00:06:10;1.67;;;1.58;;
57573;SDS011;68988;49.000;21.242;2023-10-13T00:08:36;1.60;;;1.50;;
57573;SDS011;68988;49.000;21.242;2023-10-13T00:11:14;1.13;;;1.13;;
57573;SDS011;68988;49.000;21.242;2023-10-13T00:13:40;1.60;;;1.50;;
57573;SDS011;68988;49.000;21.242;2023-10-13T00:16:07;1.90;;;1.80;;
57573;SDS011;68988;49.000;21.242;2023-10-13T00:18:34;1.45;;;1.35;;
57573;SDS011;68988;49.000;21.242;2023-10-13T00:21:06;1.60;;;1.50;;
57573;SDS011;68988;49.000;21.242;2023-10-13T00:23:41;1.85;;;1.75;;
57573;SDS011;68988;49.000;21.242;2023-10-13T00:26:22;1.88;;;1.70;;
57573;SDS011;68988;49.000;21.242;2023-10-13T00:28:52;1.67;;;1.58;;
57573;SDS011;68988;49.000;21.242;2023-10-13T00:31:24;1.60;;;1.50;;
57573;SDS011;68988;49.000;21.242;2023-10-13T00:34:01;1.63;;;1.52;;
57573;SDS011;68988;49.000;21.242;2023-10-13T00:36:51;1.60;;;1.50;;
57573;SDS011;68988;49.000;21.242;2023-10-13T00:39:35;1.80;;;1.70;;
57573;SDS011;68988;49.000;21.242;2023-10-13T00:42:02;1.52;;;1.42;;
57573;SDS011;68988;49.000;21.242;2023-10-13T00:44:32;1.70;;;1.60;;
57573;SDS011;68988;49.000;21.242;2023-10-13T00:47:08;1.50;;;1.40;;
57573;SDS011;68988;49.000;21.242;2023-10-13T00:49:41;1.70;;;1.60;;
57573;SDS011;68988;49.000;21.242;2023-10-13T00:52:08;2.10;;;2.00;;
57573;SDS011;68988;49.000;21.242;2023-10-13T00:54:36;1.40;;;1.35;;
57573;SDS011;68988;49.000;21.242;2023-10-13T00:57:03;1.88;;;1.77;;
57573;SDS011;68988;49.000;21.242;2023-10-13T00:59:51;1.80;;;1.70;;
57573;SDS011;68988;49.000;21.242;2023-10-13T01:02:18;1.55;;;1.45;;
57573;SDS011;68988;49.000;21.242;2023-10-13T01:05:02;1.55;;;1.33;;
57573;SDS011;68988;49.000;21.242;2023-10-13T01:07:29;1.50;;;1.40;;
57573;SDS011;68988;49.000;21.242;2023-10-13T01:09:54;1.60;;;1.50;;
57573;SDS011;68988;49.000;21.242;2023-10-13T01:12:20;1.73;;;1.63;;
57573;SDS011;68988;49.000;21.242;2023-10-13T01:14:48;1.80;;;1.70;;
57573;SDS011;68988;49.000;21.242;2023-10-13T01:17:14;1.60;;;1.50;;
57573;SDS011;68988;49.000;21.242;2023-10-13T01:19:39;1.27;;;1.25;;
57573;SDS011;68988;49.000;21.242;2023-10-13T01:22:07;1.58;;;1.48;;
57573;SDS011;68988;49.000;21.242;2023-10-13T01:24:33;1.25;;;1.25;;
57573;SDS011;68988;49.000;21.242;2023-10-13T01:27:05;1.55;;;1.50;;
57573;SDS011;68988;49.000;21.242;2023-10-13T01:29:46;1.60;;;1.50;;
57573;SDS011;68988;49.000;21.242;2023-10-13T01:32:23;1.50;;;1.45;;
57573;SDS011;68988;49.000;21.242;2023-10-13T01:34:49;1.42;;;1.40;;
57573;SDS011;68988;49.000;21.242;2023-10-13T01:37:20;1.67;;;1.58;;
57573;SDS011;68988;49.000;21.242;2023-10-13T01:39:46;1.50;;;1.40;;
57573;SDS011;68988;49.000;21.242;2023-10-13T01:42:14;1.50;;;1.40;;
57573;SDS011;68988;49.000;21.242;2023-10-13T01:44:46;1.27;;;1.27;;
57573;SDS011;68988;49.000;21.242;2023-10-13T01:47:12;1.30;;;1.30;;
57573;SDS011;68988;49.000;21.242;2023-10-13T01:49:38;1.60;;;1.50;;
57573;SDS011;68988;49.000;21.242;2023-10-13T01:52:13;1.60;;;1.50;;
57573;SDS011;68988;49.000;21.242;2023-10-13T01:54:45;1.58;;;1.48;;
57573;SDS011;68988;49.000;21.242;2023-10-13T01:57:13;1.77;;;1.37;;
57573;SDS011;68988;49.000;21.242;2023-10-13T01:59:46;1.70;;;1.60;;
57573;SDS011;68988;49.000;21.242;2023-10-13T02:02:12;3.90;;;1.48;;
57573;SDS011;68988;49.000;21.242;2023-10-13T02:04:39;1.70;;;1.60;;
57573;SDS011;68988;49.000;21.242;2023-10-13T02:07:17;1.60;;;1.50;;
57573;SDS011;68988;49.000;21.242;2023-10-13T02:09:42;1.40;;;1.40;;
57573;SDS011;68988;49.000;21.242;2023-10-13T02:12:08;1.63;;;1.52;;
57573;SDS011;68988;49.000;21.242;2023-10-13T02:14:35;1.70;;;1.60;;
57573;SDS011;68988;49.000;21.242;2023-10-13T02:17:02;1.50;;;1.40;;
57573;SDS011;68988;49.000;21.242;2023-10-13T02:19:41;1.52;;;1.42;;
57573;SDS011;68988;49.000;21.242;2023-10-13T02:22:10;1.50;;;1.40;;
57573;SDS011;68988;49.000;21.242;2023-10-13T02:24:36;1.33;;;1.33;;
57573;SDS011;68988;49.000;21.242;2023-10-13T02:27:08;1.42;;;1.33;;
57573;SDS011;68988;49.000;21.242;2023-10-13T02:29:41;1.48;;;1.38;;
57573;SDS011;68988;49.000;21.242;2023-10-13T02:32:10;1.70;;;1.60;;
57573;SDS011;68988;49.000;21.242;2023-10-13T02:34:47;1.52;;;1.42;;
57573;SDS011;68988;49.000;21.242;2023-10-13T02:37:12;1.77;;;1.67;;
57573;SDS011;68988;49.000;21.242;2023-10-13T02:39:39;1.20;;;1.20;;
57573;SDS011;68988;49.000;21.242;2023-10-13T02:42:08;1.33;;;1.30;;
57573;SDS011;68988;49.000;21.242;2023-10-13T02:44:41;1.20;;;1.20;;
57573;SDS011;68988;49.000;21.242;2023-10-13T02:47:11;1.75;;;1.65;;
57573;SDS011;68988;49.000;21.242;2023-10-13T02:49:39;1.20;;;1.20;;
57573;SDS011;68988;49.000;21.242;2023-10-13T02:52:08;1.50;;;1.40;;
57573;SDS011;68988;49.000;21.242;2023-10-13T02:54:34;1.65;;;1.55;;
57573;SDS011;68988;49.000;21.242;2023-10-13T02:57:06;2.38;;;1.52;;
57573;SDS011;68988;49.000;21.242;2023-10-13T02:59:31;1.40;;;1.40;;
57573;SDS011;68988;49.000;21.242;2023-10-13T03:02:20;1.33;;;1.33;;
57573;SDS011;68988;49.000;21.242;2023-10-13T03:04:50;1.10;;;1.10;;
57573;SDS011;68988;49.000;21.242;2023-10-13T03:07:24;1.45;;;1.45;;
57573;SDS011;68988;49.000;21.242;2023-10-13T03:09:53;1.33;;;1.33;;
57573;SDS011;68988;49.000;21.242;2023-10-13T03:12:22;1.92;;;1.83;;
57573;SDS011;68988;49.000;21.242;2023-10-13T03:14:50;1.40;;;1.30;;
57573;SDS011;68988;49.000;21.242;2023-10-13T03:17:36;1.60;;;1.50;;
57573;SDS011;68988;49.000;21.242;2023-10-13T03:20:01;1.60;;;1.50;;
57573;SDS011;68988;49.000;21.242;2023-10-13T03:22:30;1.30;;;1.30;;
57573;SDS011;68988;49.000;21.242;2023-10-13T03:24:56;1.52;;;1.42;;
57573;SDS011;68988;49.000;21.242;2023-10-13T03:27:25;1.35;;;1.33;;
57573;SDS011;68988;49.000;21.242;2023-10-13T03:30:05;1.70;;;1.60;;
57573;SDS011;68988;49.000;21.242;2023-10-13T03:32:38;1.55;;;1.45;;
57573;SDS011;68988;49.000;21.242;2023-10-13T03:37:42;1.40;;;1.30;;
57573;SDS011;68988;49.000;21.242;2023-10-13T03:40:11;1.48;;;1.48;;
57573;SDS011;68988;49.000;21.242;2023-10-13T03:42:50;1.90;;;1.80;;
57573;SDS011;68988;49.000;21.242;2023-10-13T03:45:39;1.10;;;1.10;;
57573;SDS011;68988;49.000;21.242;2023-10-13T03:48:09;1.42;;;1.38;;
57573;SDS011;68988;49.000;21.242;2023-10-13T03:50:41;1.50;;;1.40;;
57573;SDS011;68988;49.000;21.242;2023-10-13T03:53:14;1.27;;;1.20;;
57573;SDS011;68988;49.000;21.242;2023-10-13T03:55:40;3.13;;;1.50;;
57573;SDS011;68988;49.000;21.242;2023-10-13T04:00:38;1.58;;;1.48;;
57573;SDS011;68988;49.000;21.242;2023-10-13T04:03:03;1.55;;;1.45;;
57573;SDS011;68988;49.000;21.242;2023-10-13T04:05:34;1.13;;;1.10;;
57573;SDS011;68988;49.000;21.242;2023-10-13T04:08:10;1.40;;;1.38;;
57573;SDS011;68988;49.000;21.242;2023-10-13T04:11:08;1.42;;;1.33;;
57573;SDS011;68988;49.000;21.242;2023-10-13T04:13:52;1.60;;;1.50;;
57573;SDS011;68988;49.000;21.242;2023-10-13T04:16:36;1.50;;;1.40;;
57573;SDS011;68988;49.000;21.242;2023-10-13T04:19:02;1.27;;;1.27;;
57573;SDS011;68988;49.000;21.242;2023-10-13T04:21:28;1.50;;;1.40;;
57573;SDS011;68988;49.000;21.242;2023-10-13T04:24:07;2.53;;;1.55;;
57573;SDS011;68988;49.000;21.242;2023-10-13T04:26:34;1.30;;;1.30;;
57573;SDS011;68988;49.000;21.242;2023-10-13T04:29:07;1.30;;;1.30;;
57573;SDS011;68988;49.000;21.242;2023-10-13T04:31:55;1.55;;;1.45;;
57573;SDS011;68988;49.000;21.242;2023-10-13T04:34:25;1.48;;;1.38;;
57573;SDS011;68988;49.000;21.242;2023-10-13T04:36:59;1.25;;;1.25;;
57573;SDS011;68988;49.000;21.242;2023-10-13T04:39:45;5.85;;;4.57;;
57573;SDS011;68988;49.000;21.242;2023-10-13T04:42:10;13.38;;;6.10;;
57573;SDS011;68988;49.000;21.242;2023-10-13T04:44:51;9.45;;;6.80;;
57573;SDS011;68988;49.000;21.242;2023-10-13T04:47:21;8.20;;;6.03;;
57573;SDS011;68988;49.000;21.242;2023-10-13T04:49:47;8.82;;;6.32;;
57573;SDS011;68988;49.000;21.242;2023-10-13T04:52:12;12.77;;;5.72;;
57573;SDS011;68988;49.000;21.242;2023-10-13T04:54:41;6.38;;;5.68;;
57573;SDS011;68988;49.000;21.242;2023-10-13T04:57:15;10.35;;;5.80;;
57573;SDS011;68988;49.000;21.242;2023-10-13T04:59:47;6.55;;;5.95;;
57573;SDS011;68988;49.000;21.242;2023-10-13T05:02:22;5.95;;;5.35;;
57573;SDS011;68988;49.000;21.242;2023-10-13T05:08:07;5.90;;;5.30;;
57573;SDS011;68988;49.000;21.242;2023-10-13T05:10:51;7.07;;;5.70;;
57573;SDS011;68988;49.000;21.242;2023-10-13T05:13:35;5.85;;;5.28;;
57573;SDS011;68988;49.000;21.242;2023-10-13T05:16:19;13.07;;;5.50;;
57573;SDS011;68988;49.000;21.242;2023-10-13T05:19:03;5.30;;;4.80;;
57573;SDS011;68988;49.000;21.242;2023-10-13T05:21:47;5.65;;;5.05;;
57573;SDS011;68988;49.000;21.242;2023-10-13T05:24:31;7.55;;;4.82;;
57573;SDS011;68988;49.000;21.242;2023-10-13T05:27:15;5.50;;;5.00;;
57573;SDS011;68988;49.000;21.242;2023-10-13T05:29:58;5.78;;;5.13;;
57573;SDS011;68988;49.000;21.242;2023-10-13T05:32:42;5.25;;;4.65;;
57573;SDS011;68988;49.000;21.242;2023-10-13T05:35:26;5.50;;;5.00;;
57573;SDS011;68988;49.000;21.242;2023-10-13T05:38:10;6.47;;;5.20;;
57573;SDS011;68988;49.000;21.242;2023-10-13T05:41:01;6.97;;;5.22;;
57573;SDS011;68988;49.000;21.242;2023-10-13T05:43:46;4.97;;;4.45;;
57573;SDS011;68988;49.000;21.242;2023-10-13T05:46:30;5.93;;;4.63;;
57573;SDS011;68988;49.000;21.242;2023-10-13T05:49:02;5.35;;;4.85;;
57573;SDS011;68988;49.000;21.242;2023-10-13T05:51:55;11.05;;;4.35;;
57573;SDS011;68988;49.000;21.242;2023-10-13T05:54:31;7.55;;;4.10;;
57573;SDS011;68988;49.000;21.242;2023-10-13T05:57:15;5.00;;;4.43;;
57573;SDS011;68988;49.000;21.242;2023-10-13T05:59:59;4.72;;;4.32;;
57573;SDS011;68988;49.000;21.242;2023-10-13T06:02:43;6.32;;;4.45;;
57573;SDS011;68988;49.000;21.242;2023-10-13T06:05:27;4.68;;;4.35;;
57573;SDS011;68988;49.000;21.242;2023-10-13T06:08:11;4.68;;;4.25;;
57573;SDS011;68988;49.000;21.242;2023-10-13T06:11:02;10.95;;;4.10;;
57573;SDS011;68988;49.000;21.242;2023-10-13T06:13:46;7.03;;;4.00;;
57573;SDS011;68988;49.000;21.242;2023-10-13T06:16:31;5.35;;;4.82;;
57573;SDS011;68988;49.000;21.242;2023-10-13T06:19:14;5.82;;;4.15;;
57573;SDS011;68988;49.000;21.242;2023-10-13T06:21:58;5.65;;;4.22;;
57573;SDS011;68988;49.000;21.242;2023-10-13T06:24:42;4.43;;;4.07;;
57573;SDS011;68988;49.000;21.242;2023-10-13T06:27:26;4.70;;;4.03;;
57573;SDS011;68988;49.000;21.242;2023-10-13T06:30:10;6.88;;;4.28;;
57573;SDS011;68988;49.000;21.242;2023-10-13T06:32:37;4.55;;;4.25;;
57573;SDS011;68988;49.000;21.242;2023-10-13T06:35:05;4.15;;;3.80;;
57573;SDS011;68988;49.000;21.242;2023-10-13T06:37:32;8.98;;;3.88;;
57573;SDS011;68988;49.000;21.242;2023-10-13T06:40:02;4.97;;;3.92;;
57573;SDS011;68988;49.000;21.242;2023-10-13T06:42:51;11.57;;;4.05;;
57573;SDS011;68988;49.000;21.242;2023-10-13T06:45:18;10.05;;;4.30;;
57573;SDS011;68988;49.000;21.242;2023-10-13T06:47:44;6.55;;;4.50;;
57573;SDS011;68988;49.000;21.242;2023-10-13T06:50:15;7.90;;;3.75;;
57573;SDS011;68988;49.000;21.242;2023-10-13T06:52:44;4.63;;;4.22;;
57573;SDS011;68988;49.000;21.242;2023-10-13T06:55:10;4.57;;;4.18;;
57573;SDS011;68988;49.000;21.242;2023-10-13T06:57:42;6.78;;;4.30;;
57573;SDS011;68988;49.000;21.242;2023-10-13T07:00:09;4.60;;;4.18;;
57573;SDS011;68988;49.000;21.242;2023-10-13T07:02:44;7.43;;;4.65;;
57573;SDS011;68988;49.000;21.242;2023-10-13T07:05:09;7.15;;;4.07;;
57573;SDS011;68988;49.000;21.242;2023-10-13T07:07:36;4.43;;;3.90;;
57573;SDS011;68988;49.000;21.242;2023-10-13T07:10:07;8.02;;;4.63;;
57573;SDS011;68988;49.000;21.242;2023-10-13T07:12:33;11.32;;;5.13;;
57573;SDS011;68988;49.000;21.242;2023-10-13T07:14:59;6.30;;;3.83;;
57573;SDS011;68988;49.000;21.242;2023-10-13T07:17:36;9.77;;;4.53;;
57573;SDS011;68988;49.000;21.242;2023-10-13T07:20:04;7.15;;;4.38;;
57573;SDS011;68988;49.000;21.242;2023-10-13T07:22:40;8.30;;;4.35;;
57573;SDS011;68988;49.000;21.242;2023-10-13T07:25:20;4.82;;;4.32;;
57573;SDS011;68988;49.000;21.242;2023-10-13T07:27:50;12.27;;;4.20;;
57573;SDS011;68988;49.000;21.242;2023-10-13T07:30:15;13.95;;;4.72;;
57573;SDS011;68988;49.000;21.242;2023-10-13T07:32:45;10.52;;;4.57;;
57573;SDS011;68988;49.000;21.242;2023-10-13T07:35:14;8.07;;;4.40;;
57573;SDS011;68988;49.000;21.242;2023-10-13T07:37:43;5.75;;;3.97;;
57573;SDS011;68988;49.000;21.242;2023-10-13T07:40:10;5.63;;;4.20;;
57573;SDS011;68988;49.000;21.242;2023-10-13T07:42:56;4.13;;;3.72;;
57573;SDS011;68988;49.000;21.242;2023-10-13T07:45:37;7.30;;;4.00;;
57573;SDS011;68988;49.000;21.242;2023-10-13T07:48:05;13.32;;;4.63;;
57573;SDS011;68988;49.000;21.242;2023-10-13T07:50:45;7.68;;;4.05;;
57573;SDS011;68988;49.000;21.242;2023-10-13T07:53:10;5.35;;;4.13;;
57573;SDS011;68988;49.000;21.242;2023-10-13T07:55:47;10.15;;;3.78;;
57573;SDS011;68988;49.000;21.242;2023-10-13T07:58:27;5.03;;;4.20;;
57573;SDS011;68988;49.000;21.242;2023-10-13T08:00:53;8.60;;;3.97;;
57573;SDS011;68988;49.000;21.242;2023-10-13T08:03:41;15.50;;;4.97;;
57573;SDS011;68988;49.000;21.242;2023-10-13T08:06:16;7.18;;;4.38;;
57573;SDS011;68988;49.000;21.242;2023-10-13T08:08:43;13.68;;;4.63;;
57573;SDS011;68988;49.000;21.242;2023-10-13T08:13:49;11.35;;;4.07;;
57573;SDS011;68988;49.000;21.242;2023-10-13T08:16:30;5.15;;;4.15;;
57573;SDS011;68988;49.000;21.242;2023-10-13T08:19:15;7.72;;;4.28;;
57573;SDS011;68988;49.000;21.242;2023-10-13T08:21:42;8.40;;;4.65;;
57573;SDS011;68988;49.000;21.242;2023-10-13T08:24:17;11.85;;;5.07;;
57573;SDS011;68988;49.000;21.242;2023-10-13T08:26:50;13.98;;;4.60;;
57573;SDS011;68988;49.000;21.242;2023-10-13T08:29:42;13.23;;;4.20;;
57573;SDS011;68988;49.000;21.242;2023-10-13T08:32:34;6.10;;;4.25;;
57573;SDS011;68988;49.000;21.242;2023-10-13T08:35:01;9.23;;;4.50;;
57573;SDS011;68988;49.000;21.242;2023-10-13T08:37:30;13.82;;;4.65;;
57573;SDS011;68988;49.000;21.242;2023-10-13T08:40:23;21.73;;;4.78;;
57573;SDS011;68988;49.000;21.242;2023-10-13T08:43:12;6.32;;;4.55;;
57573;SDS011;68988;49.000;21.242;2023-10-13T08:45:41;7.55;;;4.32;;
57573;SDS011;68988;49.000;21.242;2023-10-13T08:48:08;15.55;;;4.82;;
57573;SDS011;68988;49.000;21.242;2023-10-13T08:53:28;8.43;;;4.20;;
57573;SDS011;68988;49.000;21.242;2023-10-13T08:56:01;10.07;;;4.88;;
57573;SDS011;68988;49.000;21.242;2023-10-13T08:58:30;5.95;;;4.50;;
57573;SDS011;68988;49.000;21.242;2023-10-13T09:04:02;5.07;;;4.53;;
57573;SDS011;68988;49.000;21.242;2023-10-13T09:09:28;5.95;;;4.20;;
57573;SDS011;68988;49.000;21.242;2023-10-13T09:14:36;6.07;;;4.38;;
57573;SDS011;68988;49.000;21.242;2023-10-13T09:17:07;10.85;;;4.82;;
57573;SDS011;68988;49.000;21.242;2023-10-13T09:19:47;5.90;;;4.53;;
57573;SDS011;68988;49.000;21.242;2023-10-13T09:22:23;13.38;;;4.97;;
57573;SDS011;68988;49.000;21.242;2023-10-13T09:25:00;9.43;;;4.40;;
57573;SDS011;68988;49.000;21.242;2023-10-13T09:27:32;9.95;;;4.63;;
57573;SDS011;68988;49.000;21.242;2023-10-13T09:29:58;14.70;;;4.75;;
57573;SDS011;68988;49.000;21.242;2023-10-13T09:32:34;7.35;;;4.85;;
57573;SDS011;68988;49.000;21.242;2023-10-13T09:35:10;8.05;;;4.70;;
57573;SDS011;68988;49.000;21.242;2023-10-13T09:37:41;5.03;;;4.60;;
57573;SDS011;68988;49.000;21.242;2023-10-13T09:40:07;6.63;;;4.30;;
57573;SDS011;68988;49.000;21.242;2023-10-13T09:42:50;7.93;;;4.38;;
57573;SDS011;68988;49.000;21.242;2023-10-13T09:45:16;14.45;;;4.60;;
57573;SDS011;68988;49.000;21.242;2023-10-13T09:47:43;10.02;;;4.70;;
57573;SDS011;68988;49.000;21.242;2023-10-13T09:50:17;12.75;;;4.35;;
57573;SDS011;68988;49.000;21.242;2023-10-13T09:52:58;6.93;;;4.18;;
57573;SDS011;68988;49.000;21.242;2023-10-13T09:55:29;13.40;;;4.30;;
57573;SDS011;68988;49.000;21.242;2023-10-13T09:58:00;10.93;;;5.03;;
57573;SDS011;68988;49.000;21.242;2023-10-13T10:00:43;9.63;;;4.95;;
57573;SDS011;68988;49.000;21.242;2023-10-13T10:03:21;12.73;;;5.15;;
57573;SDS011;68988;49.000;21.242;2023-10-13T10:06:04;7.20;;;5.45;;
57573;SDS011;68988;49.000;21.242;2023-10-13T10:08:42;20.95;;;5.47;;
57573;SDS011;68988;49.000;21.242;2023-10-13T10:11:44;13.95;;;5.47;;
57573;SDS011;68988;49.000;21.242;2023-10-13T10:14:23;14.02;;;6.20;;
57573;SDS011;68988;49.000;21.242;2023-10-13T10:17:05;6.85;;;5.63;;
57573;SDS011;68988;49.000;21.242;2023-10-13T10:22:31;11.38;;;5.93;;
57573;SDS011;68988;49.000;21.242;2023-10-13T10:25:09;16.48;;;6.55;;
57573;SDS011;68988;49.000;21.242;2023-10-13T10:30:28;11.10;;;6.60;;
57573;SDS011;68988;49.000;21.242;2023-10-13T10:32:55;12.75;;;6.00;;
57573;SDS011;68988;49.000;21.242;2023-10-13T10:35:38;12.82;;;6.68;;
57573;SDS011;68988;49.000;21.242;2023-10-13T10:43:27;16.25;;;6.88;;
57573;SDS011;68988;49.000;21.242;2023-10-13T10:45:54;11.18;;;6.97;;
57573;SDS011;68988;49.000;21.242;2023-10-13T10:48:25;11.10;;;7.05;;
57573;SDS011;68988;49.000;21.242;2023-10-13T10:50:57;13.93;;;6.90;;
57573;SDS011;68988;49.000;21.242;2023-10-13T10:53:24;15.68;;;7.68;;
57573;SDS011;68988;49.000;21.242;2023-10-13T10:56:13;17.52;;;7.82;;
57573;SDS011;68988;49.000;21.242;2023-10-13T10:58:46;14.65;;;8.38;;
57573;SDS011;68988;49.000;21.242;2023-10-13T11:01:12;13.73;;;7.85;;
57573;SDS011;68988;49.000;21.242;2023-10-13T11:03:54;13.18;;;8.23;;
57573;SDS011;68988;49.000;21.242;2023-10-13T11:06:26;10.55;;;8.02;;
57573;SDS011;68988;49.000;21.242;2023-10-13T11:09:02;18.00;;;7.90;;
57573;SDS011;68988;49.000;21.242;2023-10-13T11:11:49;11.80;;;7.40;;
57573;SDS011;68988;49.000;21.242;2023-10-13T11:14:21;11.77;;;8.10;;
57573;SDS011;68988;49.000;21.242;2023-10-13T11:16:51;11.90;;;7.90;;
57573;SDS011;68988;49.000;21.242;2023-10-13T11:19:41;13.75;;;7.57;;
57573;SDS011;68988;49.000;21.242;2023-10-13T11:22:17;11.50;;;7.60;;
57573;SDS011;68988;49.000;21.242;2023-10-13T11:25:06;10.18;;;7.63;;
57573;SDS011;68988;49.000;21.242;2023-10-13T11:27:35;7.72;;;6.88;;
57573;SDS011;68988;49.000;21.242;2023-10-13T11:30:20;19.13;;;7.63;;
57573;SDS011;68988;49.000;21.242;2023-10-13T11:33:12;15.73;;;7.93;;
57573;SDS011;68988;49.000;21.242;2023-10-13T11:35:43;10.13;;;6.90;;
57573;SDS011;68988;49.000;21.242;2023-10-13T11:38:27;7.85;;;7.13;;
57573;SDS011;68988;49.000;21.242;2023-10-13T11:43:52;10.30;;;6.38;;
57573;SDS011;68988;49.000;21.242;2023-10-13T11:46:21;12.90;;;6.95;;
57573;SDS011;68988;49.000;21.242;2023-10-13T11:49:11;7.55;;;6.50;;
57573;SDS011;68988;49.000;21.242;2023-10-13T11:51:44;8.73;;;6.53;;
57573;SDS011;68988;49.000;21.242;2023-10-13T11:56:40;12.10;;;6.05;;
57573;SDS011;68988;49.000;21.242;2023-10-13T11:59:08;11.05;;;6.38;;
57573;SDS011;68988;49.000;21.242;2023-10-13T12:01:51;9.25;;;6.47;;
57573;SDS011;68988;49.000;21.242;2023-10-13T12:04:35;8.73;;;6.22;;
57573;SDS011;68988;49.000;21.242;2023-10-13T12:07:13;14.70;;;6.05;;
57573;SDS011;68988;49.000;21.242;2023-10-13T12:09:46;14.15;;;6.57;;
57573;SDS011;68988;49.000;21.242;2023-10-13T12:14:47;23.20;;;6.25;;
57573;SDS011;68988;49.000;21.242;2023-10-13T12:17:26;10.73;;;5.13;;
57573;SDS011;68988;49.000;21.242;2023-10-13T12:19:59;13.45;;;6.28;;
57573;SDS011;68988;49.000;21.242;2023-10-13T12:22:25;11.25;;;6.00;;
57573;SDS011;68988;49.000;21.242;2023-10-13T12:25:00;7.13;;;4.80;;
57573;SDS011;68988;49.000;21.242;2023-10-13T12:27:29;6.60;;;5.78;;
57573;SDS011;68988;49.000;21.242;2023-10-13T12:30:10;8.23;;;5.50;;
57573;SDS011;68988;49.000;21.242;2023-10-13T12:32:39;5.90;;;5.03;;
57573;SDS011;68988;49.000;21.242;2023-10-13T12:35:09;8.00;;;5.45;;
57573;SDS011;68988;49.000;21.242;2023-10-13T12:37:35;6.88;;;5.13;;
57573;SDS011;68988;49.000;21.242;2023-10-13T12:40:16;5.38;;;4.88;;
57573;SDS011;68988;49.000;21.242;2023-10-13T12:43:02;10.15;;;5.50;;
57573;SDS011;68988;49.000;21.242;2023-10-13T12:45:47;8.65;;;5.00;;
57573;SDS011;68988;49.000;21.242;2023-10-13T12:48:32;5.93;;;5.18;;
57573;SDS011;68988;49.000;21.242;2023-10-13T12:51:16;7.78;;;4.60;;
57573;SDS011;68988;49.000;21.242;2023-10-13T12:53:48;5.20;;;4.80;;
57573;SDS011;68988;49.000;21.242;2023-10-13T12:56:15;8.88;;;5.10;;
57573;SDS011;68988;49.000;21.242;2023-10-13T12:58:41;6.93;;;4.78;;
57573;SDS011;68988;49.000;21.242;2023-10-13T13:01:07;5.78;;;5.18;;
57573;SDS011;68988;49.000;21.242;2023-10-13T13:03:32;6.03;;;5.43;;
57573;SDS011;68988;49.000;21.242;2023-10-13T13:05:58;5.53;;;5.03;;
57573;SDS011;68988;49.000;21.242;2023-10-13T13:08:24;8.23;;;5.00;;
57573;SDS011;68988;49.000;21.242;2023-10-13T13:10:50;6.07;;;4.97;;
57573;SDS011;68988;49.000;21.242;2023-10-13T13:13:17;10.23;;;5.03;;
57573;SDS011;68988;49.000;21.242;2023-10-13T13:15:49;5.53;;;4.60;;
57573;SDS011;68988;49.000;21.242;2023-10-13T13:18:15;5.57;;;4.85;;
57573;SDS011;68988;49.000;21.242;2023-10-13T13:20:40;6.10;;;4.95;;
57573;SDS011;68988;49.000;21.242;2023-10-13T13:23:17;5.05;;;4.65;;
57573;SDS011;68988;49.000;21.242;2023-10-13T13:25:44;5.47;;;4.75;;
57573;SDS011;68988;49.000;21.242;2023-10-13T13:28:10;6.20;;;4.93;;
57573;SDS011;68988;49.000;21.242;2023-10-13T13:30:36;4.95;;;4.53;;
57573;SDS011;68988;49.000;21.242;2023-10-13T13:33:03;7.70;;;4.88;;
57573;SDS011;68988;49.000;21.242;2023-10-13T13:35:36;8.18;;;5.22;;
57573;SDS011;68988;49.000;21.242;2023-10-13T13:38:02;6.22;;;4.45;;
57573;SDS011;68988;49.000;21.242;2023-10-13T13:40:47;5.18;;;4.57;;
57573;SDS011;68988;49.000;21.242;2023-10-13T13:43:19;5.78;;;4.55;;
57573;SDS011;68988;49.000;21.242;2023-10-13T13:45:59;4.70;;;4.30;;
57573;SDS011;68988;49.000;21.242;2023-10-13T13:48:27;6.30;;;4.65;;
57573;SDS011;68988;49.000;21.242;2023-10-13T13:50:53;7.63;;;4.43;;
57573;SDS011;68988;49.000;21.242;2023-10-13T13:53:28;6.60;;;4.80;;
57573;SDS011;68988;49.000;21.242;2023-10-13T13:55:59;5.35;;;4.65;;
57573;SDS011;68988;49.000;21.242;2023-10-13T13:58:25;6.85;;;4.15;;
57573;SDS011;68988;49.000;21.242;2023-10-13T14:00:50;4.40;;;4.00;;
57573;SDS011;68988;49.000;21.242;2023-10-13T14:03:16;6.55;;;4.68;;
57573;SDS011;68988;49.000;21.242;2023-10-13T14:05:59;4.60;;;4.30;;
57573;SDS011;68988;49.000;21.242;2023-10-13T14:08:26;5.00;;;4.60;;
57573;SDS011;68988;49.000;21.242;2023-10-13T14:10:55;4.80;;;4.20;;
57573;SDS011;68988;49.000;21.242;2023-10-13T14:13:39;4.50;;;4.10;;
57573;SDS011;68988;49.000;21.242;2023-10-13T14:16:17;12.38;;;4.78;;
57573;SDS011;68988;49.000;21.242;2023-10-13T14:18:47;6.68;;;4.53;;
57573;SDS011;68988;49.000;21.242;2023-10-13T14:21:14;5.05;;;4.45;;
57573;SDS011;68988;49.000;21.242;2023-10-13T14:23:45;4.80;;;4.30;;
57573;SDS011;68988;49.000;21.242;2023-10-13T14:26:13;4.78;;;4.38;;
57573;SDS011;68988;49.000;21.242;2023-10-13T14:28:39;4.40;;;4.10;;
57573;SDS011;68988;49.000;21.242;2023-10-13T14:31:15;4.68;;;4.25;;
57573;SDS011;68988;49.000;21.242;2023-10-13T14:33:41;4.55;;;4.15;;
57573;SDS011;68988;49.000;21.242;2023-10-13T14:36:09;4.72;;;4.32;;
57573;SDS011;68988;49.000;21.242;2023-10-13T14:38:35;4.95;;;4.25;;
57573;SDS011;68988;49.000;21.242;2023-10-13T14:41:00;6.25;;;4.35;;
57573;SDS011;68988;49.000;21.242;2023-10-13T14:43:26;4.70;;;4.18;;
57573;SDS011;68988;49.000;21.242;2023-10-13T14:45:53;4.53;;;4.05;;
57573;SDS011;68988;49.000;21.242;2023-10-13T14:48:18;5.30;;;4.50;;
57573;SDS011;68988;49.000;21.242;2023-10-13T14:50:43;4.80;;;4.40;;
57573;SDS011;68988;49.000;21.242;2023-10-13T14:53:10;4.80;;;4.30;;
57573;SDS011;68988;49.000;21.242;2023-10-13T14:55:35;8.27;;;4.30;;
57573;SDS011;68988;49.000;21.242;2023-10-13T14:58:04;4.00;;;3.60;;
57573;SDS011;68988;49.000;21.242;2023-10-13T15:00:32;4.65;;;4.25;;
57573;SDS011;68988;49.000;21.242;2023-10-13T15:02:59;4.60;;;4.30;;
57573;SDS011;68988;49.000;21.242;2023-10-13T15:05:26;5.10;;;4.47;;
57573;SDS011;68988;49.000;21.242;2023-10-13T15:07:55;7.57;;;5.05;;
57573;SDS011;68988;49.000;21.242;2023-10-13T15:10:21;4.68;;;4.28;;
57573;SDS011;68988;49.000;21.242;2023-10-13T15:12:46;6.00;;;4.10;;
57573;SDS011;68988;49.000;21.242;2023-10-13T15:15:13;4.70;;;4.20;;
57573;SDS011;68988;49.000;21.242;2023-10-13T15:17:41;4.30;;;4.00;;
57573;SDS011;68988;49.000;21.242;2023-10-13T15:20:07;7.65;;;3.70;;
57573;SDS011;68988;49.000;21.242;2023-10-13T15:22:34;4.60;;;4.20;;
57573;SDS011;68988;49.000;21.242;2023-10-13T15:25:01;7.03;;;4.15;;
57573;SDS011;68988;49.000;21.242;2023-10-13T15:28:02;5.22;;;4.25;;
57573;SDS011;68988;49.000;21.242;2023-10-13T15:30:28;6.25;;;4.50;;
57573;SDS011;68988;49.000;21.242;2023-10-13T15:33:09;4.65;;;4.20;;
57573;SDS011;68988;49.000;21.242;2023-10-13T15:35:38;7.88;;;4.25;;
57573;SDS011;68988;49.000;21.242;2023-10-13T15:38:04;4.60;;;4.13;;
57573;SDS011;68988;49.000;21.242;2023-10-13T15:40:31;5.00;;;4.38;;
57573;SDS011;68988;49.000;21.242;2023-10-13T15:42:57;4.53;;;4.13;;
57573;SDS011;68988;49.000;21.242;2023-10-13T15:45:24;4.53;;;4.03;;
57573;SDS011;68988;49.000;21.242;2023-10-13T15:47:57;4.55;;;4.10;;